sensor_id;sensor_type;location;lat;lon;timestamp;P1;durP1;ratioP1;P2;durP2;ratioP2
43626;SDS011;29217;52.586;13.442;2024-01-30T00:00:48;23.27;;;8.60;;
43626;SDS011;29217;52.586;13.442;2024-01-30T00:03:14;17.00;;;7.15;;
43626;SDS011;29217;52.586;13.442;2024-01-30T00:05:40;17.98;;;7.10;;
43626;SDS011;29217;52.586;13.442;2024-01-30T00:08:06;23.15;;;8.20;;
43626;SDS011;29217;52.586;13.442;2024-01-30T00:10:32;18.05;;;7.25;;
43626;SDS011;29217;52.586;13.442;2024-01-30T00:12:58;14.60;;;6.65;;
43626;SDS011;29217;52.586;13.442;2024-01-30T00:15:24;18.63;;;6.78;;
43626;SDS011;29217;52.586;13.442;2024-01-30T00:17:50;18.52;;;6.85;;
43626;SDS011;29217;52.586;13.442;2024-01-30T00:20:17;14.15;;;6.25;;
43626;SDS011;29217;52.586;13.442;2024-01-30T00:22:43;12.45;;;5.85;;
43626;SDS011;29217;52.586;13.442;2024-01-30T00:25:09;15.15;;;6.78;;
43626;SDS011;29217;52.586;13.442;2024-01-30T00:27:35;12.15;;;5.63;;
43626;SDS011;29217;52.586;13.442;2024-01-30T00:30:01;11.48;;;5.70;;
43626;SDS011;29217;52.586;13.442;2024-01-30T00:32:27;16.00;;;6.45;;
43626;SDS011;29217;52.586;13.442;2024-01-30T00:34:53;12.68;;;6.20;;
43626;SDS011;29217;52.586;13.442;2024-01-30T00:37:19;11.48;;;5.45;;
43626;SDS011;29217;52.586;13.442;2024-01-30T00:39:45;10.50;;;5.15;;
43626;SDS011;29217;52.586;13.442;2024-01-30T00:42:11;9.45;;;5.10;;
43626;SDS011;29217;52.586;13.442;2024-01-30T00:44:37;12.95;;;6.72;;
43626;SDS011;29217;52.586;13.442;2024-01-30T00:47:03;13.32;;;5.38;;
43626;SDS011;29217;52.586;13.442;2024-01-30T00:49:30;12.07;;;5.50;;
43626;SDS011;29217;52.586;13.442;2024-01-30T00:51:55;14.32;;;6.65;;
43626;SDS011;29217;52.586;13.442;2024-01-30T00:54:21;13.48;;;5.35;;
43626;SDS011;29217;52.586;13.442;2024-01-30T00:56:47;11.85;;;5.32;;
43626;SDS011;29217;52.586;13.442;2024-01-30T00:59:13;13.73;;;6.25;;
43626;SDS011;29217;52.586;13.442;2024-01-30T01:01:39;8.95;;;4.63;;
43626;SDS011;29217;52.586;13.442;2024-01-30T01:04:05;10.57;;;4.90;;
43626;SDS011;29217;52.586;13.442;2024-01-30T01:06:32;11.80;;;5.72;;
43626;SDS011;29217;52.586;13.442;2024-01-30T01:08:58;11.73;;;5.10;;
43626;SDS011;29217;52.586;13.442;2024-01-30T01:11:24;8.13;;;4.47;;
43626;SDS011;29217;52.586;13.442;2024-01-30T01:13:50;14.38;;;5.22;;
43626;SDS011;29217;52.586;13.442;2024-01-30T01:16:16;8.45;;;4.85;;
43626;SDS011;29217;52.586;13.442;2024-01-30T01:18:42;12.88;;;4.90;;
43626;SDS011;29217;52.586;13.442;2024-01-30T01:21:08;8.38;;;4.57;;
43626;SDS011;29217;52.586;13.442;2024-01-30T01:23:34;9.88;;;5.03;;
43626;SDS011;29217;52.586;13.442;2024-01-30T01:26:00;11.55;;;5.05;;
43626;SDS011;29217;52.586;13.442;2024-01-30T01:28:26;11.07;;;4.50;;
43626;SDS011;29217;52.586;13.442;2024-01-30T01:30:52;8.65;;;5.05;;
43626;SDS011;29217;52.586;13.442;2024-01-30T01:33:18;9.80;;;5.15;;
43626;SDS011;29217;52.586;13.442;2024-01-30T01:35:44;15.43;;;5.15;;
43626;SDS011;29217;52.586;13.442;2024-01-30T01:38:10;9.05;;;4.72;;
43626;SDS011;29217;52.586;13.442;2024-01-30T01:40:36;9.80;;;5.25;;
43626;SDS011;29217;52.586;13.442;2024-01-30T01:43:04;10.32;;;4.93;;
43626;SDS011;29217;52.586;13.442;2024-01-30T01:45:30;9.80;;;5.15;;
43626;SDS011;29217;52.586;13.442;2024-01-30T01:47:56;11.45;;;5.50;;
43626;SDS011;29217;52.586;13.442;2024-01-30T01:50:22;12.73;;;5.22;;
43626;SDS011;29217;52.586;13.442;2024-01-30T01:52:49;8.20;;;4.55;;
43626;SDS011;29217;52.586;13.442;2024-01-30T01:55:15;12.65;;;5.20;;
43626;SDS011;29217;52.586;13.442;2024-01-30T01:57:46;11.82;;;5.38;;
43626;SDS011;29217;52.586;13.442;2024-01-30T02:00:12;11.43;;;5.22;;
43626;SDS011;29217;52.586;13.442;2024-01-30T02:02:39;7.82;;;4.85;;
43626;SDS011;29217;52.586;13.442;2024-01-30T02:05:05;10.20;;;5.97;;
43626;SDS011;29217;52.586;13.442;2024-01-30T02:07:31;7.93;;;4.85;;
43626;SDS011;29217;52.586;13.442;2024-01-30T02:09:57;11.52;;;5.40;;
43626;SDS011;29217;52.586;13.442;2024-01-30T02:12:23;9.05;;;5.13;;
43626;SDS011;29217;52.586;13.442;2024-01-30T02:14:49;10.57;;;5.38;;
43626;SDS011;29217;52.586;13.442;2024-01-30T02:17:16;10.20;;;5.25;;
43626;SDS011;29217;52.586;13.442;2024-01-30T02:19:42;13.38;;;5.55;;
43626;SDS011;29217;52.586;13.442;2024-01-30T02:22:08;13.70;;;6.57;;
43626;SDS011;29217;52.586;13.442;2024-01-30T02:24:35;19.80;;;6.40;;
43626;SDS011;29217;52.586;13.442;2024-01-30T02:27:01;8.82;;;4.90;;
43626;SDS011;29217;52.586;13.442;2024-01-30T02:29:27;8.73;;;5.00;;
43626;SDS011;29217;52.586;13.442;2024-01-30T02:31:53;11.45;;;5.13;;
43626;SDS011;29217;52.586;13.442;2024-01-30T02:34:19;9.02;;;5.57;;
43626;SDS011;29217;52.586;13.442;2024-01-30T02:36:45;13.45;;;4.60;;
43626;SDS011;29217;52.586;13.442;2024-01-30T02:39:11;10.38;;;5.32;;
43626;SDS011;29217;52.586;13.442;2024-01-30T02:41:37;7.80;;;4.60;;
43626;SDS011;29217;52.586;13.442;2024-01-30T02:44:03;8.65;;;5.00;;
43626;SDS011;29217;52.586;13.442;2024-01-30T02:46:29;10.13;;;5.40;;
43626;SDS011;29217;52.586;13.442;2024-01-30T02:48:55;8.25;;;4.90;;
43626;SDS011;29217;52.586;13.442;2024-01-30T02:51:22;11.35;;;5.88;;
43626;SDS011;29217;52.586;13.442;2024-01-30T02:53:48;12.55;;;5.25;;
43626;SDS011;29217;52.586;13.442;2024-01-30T02:56:14;8.88;;;5.05;;
43626;SDS011;29217;52.586;13.442;2024-01-30T02:58:40;9.90;;;4.93;;
43626;SDS011;29217;52.586;13.442;2024-01-30T03:01:06;9.73;;;4.75;;
43626;SDS011;29217;52.586;13.442;2024-01-30T03:03:32;12.00;;;5.85;;
43626;SDS011;29217;52.586;13.442;2024-01-30T03:06:00;16.35;;;5.60;;
43626;SDS011;29217;52.586;13.442;2024-01-30T03:08:27;9.80;;;5.35;;
43626;SDS011;29217;52.586;13.442;2024-01-30T03:10:53;8.80;;;4.15;;
43626;SDS011;29217;52.586;13.442;2024-01-30T03:13:19;10.30;;;5.15;;
43626;SDS011;29217;52.586;13.442;2024-01-30T03:15:45;11.10;;;4.60;;
43626;SDS011;29217;52.586;13.442;2024-01-30T03:18:11;12.07;;;5.97;;
43626;SDS011;29217;52.586;13.442;2024-01-30T03:20:37;12.63;;;5.50;;
43626;SDS011;29217;52.586;13.442;2024-01-30T03:23:03;18.23;;;8.27;;
43626;SDS011;29217;52.586;13.442;2024-01-30T03:25:29;17.25;;;7.63;;
43626;SDS011;29217;52.586;13.442;2024-01-30T03:27:55;17.65;;;7.80;;
43626;SDS011;29217;52.586;13.442;2024-01-30T03:30:21;13.63;;;6.68;;
43626;SDS011;29217;52.586;13.442;2024-01-30T03:32:47;14.20;;;6.15;;
43626;SDS011;29217;52.586;13.442;2024-01-30T03:35:13;16.20;;;6.25;;
43626;SDS011;29217;52.586;13.442;2024-01-30T03:37:40;13.82;;;6.05;;
43626;SDS011;29217;52.586;13.442;2024-01-30T03:40:06;15.98;;;5.05;;
43626;SDS011;29217;52.586;13.442;2024-01-30T03:42:32;8.30;;;4.93;;
43626;SDS011;29217;52.586;13.442;2024-01-30T03:44:58;14.40;;;6.47;;
43626;SDS011;29217;52.586;13.442;2024-01-30T03:47:24;9.70;;;5.35;;
43626;SDS011;29217;52.586;13.442;2024-01-30T03:49:50;7.53;;;5.00;;
43626;SDS011;29217;52.586;13.442;2024-01-30T03:52:16;10.02;;;4.82;;
43626;SDS011;29217;52.586;13.442;2024-01-30T03:54:42;9.90;;;6.10;;
43626;SDS011;29217;52.586;13.442;2024-01-30T03:57:08;10.05;;;5.50;;
43626;SDS011;29217;52.586;13.442;2024-01-30T03:59:34;14.45;;;6.65;;
43626;SDS011;29217;52.586;13.442;2024-01-30T04:02:00;14.05;;;5.88;;
43626;SDS011;29217;52.586;13.442;2024-01-30T04:04:26;9.52;;;4.95;;
43626;SDS011;29217;52.586;13.442;2024-01-30T04:06:52;10.35;;;5.22;;
43626;SDS011;29217;52.586;13.442;2024-01-30T04:09:18;8.80;;;5.28;;
43626;SDS011;29217;52.586;13.442;2024-01-30T04:11:44;9.82;;;5.45;;
43626;SDS011;29217;52.586;13.442;2024-01-30T04:14:10;13.98;;;5.10;;
43626;SDS011;29217;52.586;13.442;2024-01-30T04:16:36;16.67;;;7.65;;
43626;SDS011;29217;52.586;13.442;2024-01-30T04:19:02;24.27;;;9.45;;
43626;SDS011;29217;52.586;13.442;2024-01-30T04:21:28;28.63;;;9.77;;
43626;SDS011;29217;52.586;13.442;2024-01-30T04:23:54;18.38;;;6.47;;
43626;SDS011;29217;52.586;13.442;2024-01-30T04:26:20;17.02;;;7.05;;
43626;SDS011;29217;52.586;13.442;2024-01-30T04:28:46;20.33;;;7.88;;
43626;SDS011;29217;52.586;13.442;2024-01-30T04:31:12;18.00;;;8.00;;
43626;SDS011;29217;52.586;13.442;2024-01-30T04:33:38;20.60;;;8.73;;
43626;SDS011;29217;52.586;13.442;2024-01-30T04:36:04;16.23;;;6.88;;
43626;SDS011;29217;52.586;13.442;2024-01-30T04:38:31;9.68;;;5.43;;
43626;SDS011;29217;52.586;13.442;2024-01-30T04:40:57;8.85;;;5.40;;
43626;SDS011;29217;52.586;13.442;2024-01-30T04:43:23;12.55;;;5.85;;
43626;SDS011;29217;52.586;13.442;2024-01-30T04:45:49;8.23;;;5.10;;
43626;SDS011;29217;52.586;13.442;2024-01-30T04:48:15;10.20;;;5.25;;
43626;SDS011;29217;52.586;13.442;2024-01-30T04:50:41;6.93;;;4.20;;
43626;SDS011;29217;52.586;13.442;2024-01-30T04:53:07;13.57;;;6.22;;
43626;SDS011;29217;52.586;13.442;2024-01-30T04:55:34;10.88;;;5.07;;
43626;SDS011;29217;52.586;13.442;2024-01-30T04:58:01;8.05;;;4.80;;
43626;SDS011;29217;52.586;13.442;2024-01-30T05:00:27;14.85;;;5.13;;
43626;SDS011;29217;52.586;13.442;2024-01-30T05:02:54;13.55;;;4.85;;
43626;SDS011;29217;52.586;13.442;2024-01-30T05:05:20;11.23;;;5.80;;
43626;SDS011;29217;52.586;13.442;2024-01-30T05:07:46;8.88;;;4.85;;
43626;SDS011;29217;52.586;13.442;2024-01-30T05:10:13;15.13;;;5.80;;
43626;SDS011;29217;52.586;13.442;2024-01-30T05:12:39;10.15;;;5.28;;
43626;SDS011;29217;52.586;13.442;2024-01-30T05:15:05;8.68;;;5.13;;
43626;SDS011;29217;52.586;13.442;2024-01-30T05:17:32;9.15;;;5.25;;
43626;SDS011;29217;52.586;13.442;2024-01-30T05:19:58;18.55;;;5.75;;
43626;SDS011;29217;52.586;13.442;2024-01-30T05:22:24;10.27;;;5.85;;
43626;SDS011;29217;52.586;13.442;2024-01-30T05:24:50;9.35;;;5.25;;
43626;SDS011;29217;52.586;13.442;2024-01-30T05:27:16;10.85;;;5.60;;
43626;SDS011;29217;52.586;13.442;2024-01-30T05:29:42;16.15;;;5.95;;
43626;SDS011;29217;52.586;13.442;2024-01-30T05:32:08;14.93;;;6.55;;
43626;SDS011;29217;52.586;13.442;2024-01-30T05:34:35;8.98;;;5.22;;
43626;SDS011;29217;52.586;13.442;2024-01-30T05:37:01;8.25;;;5.00;;
43626;SDS011;29217;52.586;13.442;2024-01-30T05:39:27;11.18;;;6.10;;
43626;SDS011;29217;52.586;13.442;2024-01-30T05:41:53;9.82;;;5.00;;
43626;SDS011;29217;52.586;13.442;2024-01-30T05:44:19;8.07;;;5.18;;
43626;SDS011;29217;52.586;13.442;2024-01-30T05:46:45;11.75;;;5.13;;
43626;SDS011;29217;52.586;13.442;2024-01-30T05:49:11;10.50;;;5.13;;
43626;SDS011;29217;52.586;13.442;2024-01-30T05:51:37;9.60;;;5.38;;
43626;SDS011;29217;52.586;13.442;2024-01-30T05:54:03;14.10;;;5.70;;
43626;SDS011;29217;52.586;13.442;2024-01-30T05:56:29;18.20;;;5.45;;
43626;SDS011;29217;52.586;13.442;2024-01-30T05:58:55;11.43;;;5.07;;
43626;SDS011;29217;52.586;13.442;2024-01-30T06:01:21;13.18;;;5.82;;
43626;SDS011;29217;52.586;13.442;2024-01-30T06:03:47;11.55;;;5.35;;
43626;SDS011;29217;52.586;13.442;2024-01-30T06:06:13;9.93;;;5.10;;
43626;SDS011;29217;52.586;13.442;2024-01-30T06:08:39;15.35;;;6.35;;
43626;SDS011;29217;52.586;13.442;2024-01-30T06:11:05;11.57;;;6.05;;
43626;SDS011;29217;52.586;13.442;2024-01-30T06:13:31;12.65;;;5.70;;
43626;SDS011;29217;52.586;13.442;2024-01-30T06:15:58;23.48;;;6.05;;
43626;SDS011;29217;52.586;13.442;2024-01-30T06:18:24;12.73;;;5.85;;
43626;SDS011;29217;52.586;13.442;2024-01-30T06:20:51;10.65;;;5.35;;
43626;SDS011;29217;52.586;13.442;2024-01-30T06:23:17;10.30;;;6.28;;
43626;SDS011;29217;52.586;13.442;2024-01-30T06:25:43;10.65;;;5.68;;
43626;SDS011;29217;52.586;13.442;2024-01-30T06:28:09;11.80;;;4.95;;
43626;SDS011;29217;52.586;13.442;2024-01-30T06:30:35;11.15;;;5.47;;
43626;SDS011;29217;52.586;13.442;2024-01-30T06:33:01;10.10;;;5.05;;
43626;SDS011;29217;52.586;13.442;2024-01-30T06:35:27;9.43;;;5.03;;
43626;SDS011;29217;52.586;13.442;2024-01-30T06:37:54;11.73;;;5.50;;
43626;SDS011;29217;52.586;13.442;2024-01-30T06:40:20;10.00;;;5.70;;
43626;SDS011;29217;52.586;13.442;2024-01-30T06:42:46;14.13;;;6.93;;
43626;SDS011;29217;52.586;13.442;2024-01-30T06:45:11;14.45;;;7.20;;
43626;SDS011;29217;52.586;13.442;2024-01-30T06:47:37;16.25;;;7.20;;
43626;SDS011;29217;52.586;13.442;2024-01-30T06:50:03;14.38;;;6.43;;
43626;SDS011;29217;52.586;13.442;2024-01-30T06:52:30;13.98;;;6.07;;
43626;SDS011;29217;52.586;13.442;2024-01-30T06:54:56;13.07;;;6.10;;
43626;SDS011;29217;52.586;13.442;2024-01-30T06:57:22;11.75;;;5.47;;
43626;SDS011;29217;52.586;13.442;2024-01-30T06:59:48;12.77;;;5.93;;
43626;SDS011;29217;52.586;13.442;2024-01-30T07:02:13;11.65;;;5.97;;
43626;SDS011;29217;52.586;13.442;2024-01-30T07:04:39;10.90;;;5.60;;
43626;SDS011;29217;52.586;13.442;2024-01-30T07:07:07;17.65;;;6.53;;
43626;SDS011;29217;52.586;13.442;2024-01-30T07:09:37;9.65;;;5.43;;
43626;SDS011;29217;52.586;13.442;2024-01-30T07:12:03;10.90;;;5.22;;
43626;SDS011;29217;52.586;13.442;2024-01-30T07:14:30;10.85;;;5.15;;
43626;SDS011;29217;52.586;13.442;2024-01-30T07:16:56;10.50;;;6.00;;
43626;SDS011;29217;52.586;13.442;2024-01-30T07:19:22;11.70;;;5.68;;
43626;SDS011;29217;52.586;13.442;2024-01-30T07:21:48;16.13;;;6.35;;
43626;SDS011;29217;52.586;13.442;2024-01-30T07:24:13;12.95;;;6.30;;
43626;SDS011;29217;52.586;13.442;2024-01-30T07:26:39;12.10;;;5.72;;
43626;SDS011;29217;52.586;13.442;2024-01-30T07:29:06;11.50;;;6.30;;
43626;SDS011;29217;52.586;13.442;2024-01-30T07:31:32;11.93;;;6.32;;
43626;SDS011;29217;52.586;13.442;2024-01-30T07:33:58;10.82;;;7.15;;
43626;SDS011;29217;52.586;13.442;2024-01-30T07:36:24;18.08;;;6.72;;
43626;SDS011;29217;52.586;13.442;2024-01-30T07:38:49;11.18;;;6.30;;
43626;SDS011;29217;52.586;13.442;2024-01-30T07:41:15;12.15;;;5.55;;
43626;SDS011;29217;52.586;13.442;2024-01-30T07:43:42;10.90;;;6.07;;
43626;SDS011;29217;52.586;13.442;2024-01-30T07:46:09;11.40;;;5.20;;
43626;SDS011;29217;52.586;13.442;2024-01-30T07:48:35;9.68;;;4.57;;
43626;SDS011;29217;52.586;13.442;2024-01-30T07:51:01;12.60;;;6.03;;
43626;SDS011;29217;52.586;13.442;2024-01-30T07:53:28;9.90;;;4.88;;
43626;SDS011;29217;52.586;13.442;2024-01-30T07:55:54;12.10;;;6.30;;
43626;SDS011;29217;52.586;13.442;2024-01-30T07:58:20;11.00;;;5.90;;
43626;SDS011;29217;52.586;13.442;2024-01-30T08:00:48;10.35;;;5.85;;
43626;SDS011;29217;52.586;13.442;2024-01-30T08:03:16;15.10;;;6.47;;
43626;SDS011;29217;52.586;13.442;2024-01-30T08:05:43;9.48;;;5.82;;
43626;SDS011;29217;52.586;13.442;2024-01-30T08:08:09;14.00;;;6.22;;
43626;SDS011;29217;52.586;13.442;2024-01-30T08:10:35;13.18;;;6.50;;
43626;SDS011;29217;52.586;13.442;2024-01-30T08:13:01;15.35;;;6.82;;
43626;SDS011;29217;52.586;13.442;2024-01-30T08:15:27;11.30;;;6.10;;
43626;SDS011;29217;52.586;13.442;2024-01-30T08:17:53;17.42;;;5.95;;
43626;SDS011;29217;52.586;13.442;2024-01-30T08:20:23;14.82;;;6.47;;
43626;SDS011;29217;52.586;13.442;2024-01-30T08:22:49;12.75;;;6.32;;
43626;SDS011;29217;52.586;13.442;2024-01-30T08:25:15;12.80;;;6.57;;
43626;SDS011;29217;52.586;13.442;2024-01-30T08:27:41;12.40;;;6.05;;
43626;SDS011;29217;52.586;13.442;2024-01-30T08:30:07;18.15;;;6.40;;
43626;SDS011;29217;52.586;13.442;2024-01-30T08:32:33;12.82;;;5.47;;
43626;SDS011;29217;52.586;13.442;2024-01-30T08:34:59;13.52;;;5.50;;
43626;SDS011;29217;52.586;13.442;2024-01-30T08:37:28;12.35;;;5.93;;
43626;SDS011;29217;52.586;13.442;2024-01-30T08:39:54;14.23;;;5.55;;
43626;SDS011;29217;52.586;13.442;2024-01-30T08:42:20;13.13;;;5.43;;
43626;SDS011;29217;52.586;13.442;2024-01-30T08:44:50;9.20;;;5.32;;
43626;SDS011;29217;52.586;13.442;2024-01-30T08:47:17;13.70;;;5.85;;
43626;SDS011;29217;52.586;13.442;2024-01-30T08:49:43;16.17;;;6.30;;
43626;SDS011;29217;52.586;13.442;2024-01-30T08:52:10;10.32;;;5.15;;
43626;SDS011;29217;52.586;13.442;2024-01-30T08:54:36;12.07;;;6.00;;
43626;SDS011;29217;52.586;13.442;2024-01-30T08:57:02;12.95;;;5.55;;
43626;SDS011;29217;52.586;13.442;2024-01-30T08:59:29;17.02;;;5.80;;
43626;SDS011;29217;52.586;13.442;2024-01-30T09:01:55;11.35;;;5.25;;
43626;SDS011;29217;52.586;13.442;2024-01-30T09:04:22;13.82;;;5.97;;
43626;SDS011;29217;52.586;13.442;2024-01-30T09:06:49;13.50;;;5.95;;
43626;SDS011;29217;52.586;13.442;2024-01-30T09:09:15;10.90;;;6.30;;
43626;SDS011;29217;52.586;13.442;2024-01-30T09:11:41;14.95;;;6.78;;
43626;SDS011;29217;52.586;13.442;2024-01-30T09:14:07;14.70;;;6.45;;
43626;SDS011;29217;52.586;13.442;2024-01-30T09:16:33;15.10;;;6.20;;
43626;SDS011;29217;52.586;13.442;2024-01-30T09:18:59;12.70;;;6.00;;
43626;SDS011;29217;52.586;13.442;2024-01-30T09:21:25;14.25;;;6.60;;
43626;SDS011;29217;52.586;13.442;2024-01-30T09:23:53;11.63;;;6.13;;
43626;SDS011;29217;52.586;13.442;2024-01-30T09:26:19;12.38;;;5.88;;
43626;SDS011;29217;52.586;13.442;2024-01-30T09:28:45;12.10;;;5.70;;
43626;SDS011;29217;52.586;13.442;2024-01-30T09:31:11;14.88;;;6.25;;
43626;SDS011;29217;52.586;13.442;2024-01-30T09:33:38;18.73;;;5.97;;
43626;SDS011;29217;52.586;13.442;2024-01-30T09:36:07;11.93;;;5.80;;
43626;SDS011;29217;52.586;13.442;2024-01-30T09:38:33;13.25;;;5.35;;
43626;SDS011;29217;52.586;13.442;2024-01-30T09:41:00;12.18;;;5.90;;
43626;SDS011;29217;52.586;13.442;2024-01-30T09:43:30;10.60;;;4.80;;
43626;SDS011;29217;52.586;13.442;2024-01-30T09:45:59;9.05;;;5.32;;
43626;SDS011;29217;52.586;13.442;2024-01-30T09:48:25;9.00;;;5.32;;
43626;SDS011;29217;52.586;13.442;2024-01-30T09:50:52;10.95;;;4.80;;
43626;SDS011;29217;52.586;13.442;2024-01-30T09:53:18;13.00;;;5.50;;
43626;SDS011;29217;52.586;13.442;2024-01-30T09:55:44;11.38;;;5.68;;
43626;SDS011;29217;52.586;13.442;2024-01-30T09:58:11;10.27;;;5.45;;
43626;SDS011;29217;52.586;13.442;2024-01-30T10:00:38;10.35;;;4.70;;
43626;SDS011;29217;52.586;13.442;2024-01-30T10:03:04;13.48;;;5.80;;
43626;SDS011;29217;52.586;13.442;2024-01-30T10:05:31;13.20;;;5.35;;
43626;SDS011;29217;52.586;13.442;2024-01-30T10:08:00;14.65;;;5.10;;
43626;SDS011;29217;52.586;13.442;2024-01-30T10:10:27;10.50;;;5.32;;
43626;SDS011;29217;52.586;13.442;2024-01-30T10:12:53;10.85;;;5.43;;
43626;SDS011;29217;52.586;13.442;2024-01-30T10:15:19;13.45;;;5.25;;
43626;SDS011;29217;52.586;13.442;2024-01-30T10:17:45;12.10;;;5.20;;
43626;SDS011;29217;52.586;13.442;2024-01-30T10:20:12;9.52;;;5.45;;
43626;SDS011;29217;52.586;13.442;2024-01-30T10:22:39;13.20;;;5.65;;
43626;SDS011;29217;52.586;13.442;2024-01-30T10:25:05;10.73;;;4.82;;
43626;SDS011;29217;52.586;13.442;2024-01-30T10:27:32;8.15;;;4.43;;
43626;SDS011;29217;52.586;13.442;2024-01-30T10:29:58;14.65;;;5.07;;
43626;SDS011;29217;52.586;13.442;2024-01-30T10:32:23;12.73;;;5.15;;
43626;SDS011;29217;52.586;13.442;2024-01-30T10:34:51;12.30;;;4.50;;
43626;SDS011;29217;52.586;13.442;2024-01-30T10:37:16;11.77;;;5.10;;
43626;SDS011;29217;52.586;13.442;2024-01-30T10:39:44;10.82;;;4.93;;
43626;SDS011;29217;52.586;13.442;2024-01-30T10:42:14;11.35;;;5.30;;
43626;SDS011;29217;52.586;13.442;2024-01-30T10:44:48;7.65;;;4.90;;
43626;SDS011;29217;52.586;13.442;2024-01-30T10:47:33;11.70;;;4.75;;
43626;SDS011;29217;52.586;13.442;2024-01-30T10:50:03;8.45;;;5.00;;
43626;SDS011;29217;52.586;13.442;2024-01-30T10:52:29;8.60;;;4.50;;
43626;SDS011;29217;52.586;13.442;2024-01-30T10:54:56;8.57;;;4.60;;
43626;SDS011;29217;52.586;13.442;2024-01-30T10:57:25;7.90;;;3.90;;
43626;SDS011;29217;52.586;13.442;2024-01-30T10:59:58;8.00;;;4.50;;
43626;SDS011;29217;52.586;13.442;2024-01-30T11:02:25;10.05;;;4.47;;
43626;SDS011;29217;52.586;13.442;2024-01-30T11:04:56;15.27;;;5.15;;
43626;SDS011;29217;52.586;13.442;2024-01-30T11:07:29;9.68;;;4.65;;
43626;SDS011;29217;52.586;13.442;2024-01-30T11:12:23;9.13;;;4.72;;
43626;SDS011;29217;52.586;13.442;2024-01-30T11:14:50;9.98;;;4.55;;
43626;SDS011;29217;52.586;13.442;2024-01-30T11:17:28;11.13;;;4.07;;
43626;SDS011;29217;52.586;13.442;2024-01-30T11:19:54;11.73;;;4.80;;
43626;SDS011;29217;52.586;13.442;2024-01-30T11:22:20;11.45;;;4.63;;
43626;SDS011;29217;52.586;13.442;2024-01-30T11:24:46;13.27;;;5.10;;
43626;SDS011;29217;52.586;13.442;2024-01-30T11:27:12;9.85;;;4.63;;
43626;SDS011;29217;52.586;13.442;2024-01-30T11:29:39;11.70;;;4.05;;
43626;SDS011;29217;52.586;13.442;2024-01-30T11:32:05;8.60;;;4.57;;
43626;SDS011;29217;52.586;13.442;2024-01-30T11:34:32;8.00;;;4.55;;
43626;SDS011;29217;52.586;13.442;2024-01-30T11:37:01;7.20;;;4.40;;
43626;SDS011;29217;52.586;13.442;2024-01-30T11:39:31;15.20;;;5.00;;
43626;SDS011;29217;52.586;13.442;2024-01-30T11:41:57;9.95;;;4.43;;
43626;SDS011;29217;52.586;13.442;2024-01-30T11:44:24;11.73;;;4.60;;
43626;SDS011;29217;52.586;13.442;2024-01-30T11:46:51;11.35;;;4.90;;
43626;SDS011;29217;52.586;13.442;2024-01-30T11:49:17;10.63;;;4.45;;
43626;SDS011;29217;52.586;13.442;2024-01-30T11:51:45;10.98;;;4.82;;
43626;SDS011;29217;52.586;13.442;2024-01-30T11:54:11;6.63;;;4.07;;
43626;SDS011;29217;52.586;13.442;2024-01-30T11:56:37;9.98;;;5.53;;
43626;SDS011;29217;52.586;13.442;2024-01-30T11:59:03;8.07;;;4.60;;
43626;SDS011;29217;52.586;13.442;2024-01-30T12:01:30;10.48;;;4.63;;
43626;SDS011;29217;52.586;13.442;2024-01-30T12:03:56;10.55;;;5.05;;
43626;SDS011;29217;52.586;13.442;2024-01-30T12:06:23;9.63;;;4.70;;
43626;SDS011;29217;52.586;13.442;2024-01-30T12:08:58;8.60;;;4.55;;
43626;SDS011;29217;52.586;13.442;2024-01-30T12:11:26;12.32;;;5.13;;
43626;SDS011;29217;52.586;13.442;2024-01-30T12:13:52;11.73;;;5.65;;
43626;SDS011;29217;52.586;13.442;2024-01-30T12:16:19;11.20;;;4.82;;
43626;SDS011;29217;52.586;13.442;2024-01-30T12:18:45;11.40;;;4.65;;
43626;SDS011;29217;52.586;13.442;2024-01-30T12:21:11;14.90;;;5.18;;
43626;SDS011;29217;52.586;13.442;2024-01-30T12:23:37;15.80;;;4.85;;
43626;SDS011;29217;52.586;13.442;2024-01-30T12:26:03;8.75;;;4.50;;
43626;SDS011;29217;52.586;13.442;2024-01-30T12:28:32;8.73;;;4.70;;
43626;SDS011;29217;52.586;13.442;2024-01-30T12:31:01;8.40;;;4.82;;
43626;SDS011;29217;52.586;13.442;2024-01-30T12:33:28;10.25;;;4.90;;
43626;SDS011;29217;52.586;13.442;2024-01-30T12:35:54;8.73;;;4.40;;
43626;SDS011;29217;52.586;13.442;2024-01-30T12:38:21;8.27;;;4.63;;
43626;SDS011;29217;52.586;13.442;2024-01-30T12:40:47;9.43;;;5.22;;
43626;SDS011;29217;52.586;13.442;2024-01-30T12:43:15;10.95;;;5.38;;
43626;SDS011;29217;52.586;13.442;2024-01-30T12:45:41;21.15;;;5.80;;
43626;SDS011;29217;52.586;13.442;2024-01-30T12:48:08;8.60;;;4.97;;
43626;SDS011;29217;52.586;13.442;2024-01-30T12:50:34;11.75;;;4.55;;
43626;SDS011;29217;52.586;13.442;2024-01-30T12:52:59;11.57;;;5.28;;
43626;SDS011;29217;52.586;13.442;2024-01-30T12:55:25;9.45;;;4.70;;
43626;SDS011;29217;52.586;13.442;2024-01-30T12:57:53;11.65;;;5.20;;
43626;SDS011;29217;52.586;13.442;2024-01-30T13:00:19;8.50;;;4.43;;
43626;SDS011;29217;52.586;13.442;2024-01-30T13:02:45;8.80;;;4.95;;
43626;SDS011;29217;52.586;13.442;2024-01-30T13:05:12;15.02;;;5.15;;
43626;SDS011;29217;52.586;13.442;2024-01-30T13:07:38;10.57;;;4.72;;
43626;SDS011;29217;52.586;13.442;2024-01-30T13:10:03;9.32;;;4.90;;
43626;SDS011;29217;52.586;13.442;2024-01-30T13:12:29;9.68;;;4.80;;
43626;SDS011;29217;52.586;13.442;2024-01-30T13:14:57;15.10;;;4.90;;
43626;SDS011;29217;52.586;13.442;2024-01-30T13:17:23;15.27;;;5.10;;
43626;SDS011;29217;52.586;13.442;2024-01-30T13:19:49;10.35;;;5.60;;
43626;SDS011;29217;52.586;13.442;2024-01-30T13:22:15;13.05;;;5.30;;
43626;SDS011;29217;52.586;13.442;2024-01-30T13:24:40;9.50;;;5.07;;
43626;SDS011;29217;52.586;13.442;2024-01-30T13:27:07;9.80;;;5.03;;
43626;SDS011;29217;52.586;13.442;2024-01-30T13:29:32;10.65;;;4.95;;
43626;SDS011;29217;52.586;13.442;2024-01-30T13:31:58;10.05;;;5.85;;
43626;SDS011;29217;52.586;13.442;2024-01-30T13:34:23;10.43;;;5.18;;
43626;SDS011;29217;52.586;13.442;2024-01-30T13:36:50;11.45;;;5.40;;
43626;SDS011;29217;52.586;13.442;2024-01-30T13:39:15;14.75;;;5.35;;
43626;SDS011;29217;52.586;13.442;2024-01-30T13:41:41;13.05;;;5.20;;
43626;SDS011;29217;52.586;13.442;2024-01-30T13:44:07;10.75;;;5.18;;
43626;SDS011;29217;52.586;13.442;2024-01-30T13:46:34;8.68;;;4.68;;
43626;SDS011;29217;52.586;13.442;2024-01-30T13:49:00;15.82;;;5.57;;
43626;SDS011;29217;52.586;13.442;2024-01-30T13:51:25;10.32;;;5.07;;
43626;SDS011;29217;52.586;13.442;2024-01-30T13:53:51;10.77;;;4.93;;
43626;SDS011;29217;52.586;13.442;2024-01-30T13:56:17;13.25;;;4.25;;
43626;SDS011;29217;52.586;13.442;2024-01-30T13:58:42;10.90;;;5.38;;
43626;SDS011;29217;52.586;13.442;2024-01-30T14:01:08;13.35;;;5.25;;
43626;SDS011;29217;52.586;13.442;2024-01-30T14:03:35;8.55;;;4.78;;
43626;SDS011;29217;52.586;13.442;2024-01-30T14:06:00;8.75;;;4.68;;
43626;SDS011;29217;52.586;13.442;2024-01-30T14:08:26;11.13;;;5.30;;
43626;SDS011;29217;52.586;13.442;2024-01-30T14:10:53;14.40;;;5.63;;
43626;SDS011;29217;52.586;13.442;2024-01-30T14:13:20;11.05;;;5.25;;
43626;SDS011;29217;52.586;13.442;2024-01-30T14:15:47;9.82;;;4.80;;
43626;SDS011;29217;52.586;13.442;2024-01-30T14:18:14;15.50;;;5.13;;
43626;SDS011;29217;52.586;13.442;2024-01-30T14:20:40;13.60;;;6.10;;
43626;SDS011;29217;52.586;13.442;2024-01-30T14:23:06;11.57;;;5.30;;